createdAt,value
2022-09-10T00:01:59.359Z,95.99
2022-09-10T00:04:30.176Z,96.13
2022-09-10T00:06:59.989Z,95.51
2022-09-10T00:09:29.605Z,95.71
2022-09-10T00:11:59.411Z,95.51
2022-09-10T00:14:31.623Z,95.73
2022-09-10T00:17:01.803Z,96.09
2022-09-10T00:19:33.008Z,95.59
2022-09-10T00:22:02.642Z,96.14
2022-09-10T00:24:33.818Z,96.40
2022-09-10T00:27:03.569Z,96.15
2022-09-10T00:29:35.721Z,96.29
2022-09-10T00:32:07.019Z,96.64
2022-09-10T00:34:36.937Z,97.16
2022-09-10T00:37:06.594Z,97.95
2022-09-10T00:39:36.359Z,97.29
2022-09-10T00:42:06.389Z,97.28
2022-09-10T00:45:01.490Z,96.42
2022-09-10T00:47:36.786Z,96.85
2022-09-10T00:50:15.212Z,96.76
2022-09-10T00:52:47.489Z,96.49
2022-09-10T00:55:19.225Z,96.43
2022-09-10T00:57:52.158Z,95.57
2022-09-10T01:00:25.425Z,95.73
2022-09-10T01:02:55.544Z,96.18
2022-09-10T01:05:25.957Z,95.63
2022-09-10T01:07:57.032Z,96.21
2022-09-10T01:10:30.737Z,95.80
2022-09-10T01:13:33.183Z,95.23
2022-09-10T01:16:19.434Z,95.64
2022-09-10T01:18:57.199Z,96.39
2022-09-10T01:21:31.675Z,96.02
2022-09-10T01:24:40.477Z,95.32
2022-09-10T01:27:41.633Z,95.15
2022-09-10T01:30:15.827Z,96.63
2022-09-10T01:32:57.934Z,96.40
2022-09-10T01:35:37.917Z,96.75
2022-09-10T01:38:13.613Z,96.44
2022-09-10T01:40:44.556Z,96.27
2022-09-10T01:43:22.684Z,95.81
2022-09-10T01:46:10.934Z,95.42
2022-09-10T01:48:57.830Z,95.43
2022-09-10T01:51:34.922Z,96.25
2022-09-10T01:54:25.439Z,95.71
2022-09-10T01:57:07.525Z,95.37
2022-09-10T01:59:47.018Z,96.24
2022-09-10T02:02:21.713Z,95.97
2022-09-10T02:04:53.595Z,96.40
2022-09-10T02:07:26.951Z,96.54
2022-09-10T02:09:57.617Z,96.84
2022-09-10T02:12:29.124Z,96.78
2022-09-10T02:15:12.923Z,96.90
2022-09-10T02:17:58.981Z,96.98
2022-09-10T02:20:31.277Z,97.19
2022-09-10T02:23:02.658Z,98.03
2022-09-10T02:25:37.558Z,98.73
2022-09-10T02:28:08.910Z,98.74
2022-09-10T02:30:41.126Z,98.51
2022-09-10T02:33:12.078Z,99.04
2022-09-10T02:35:41.696Z,98.98
2022-09-10T02:38:11.347Z,98.50
2022-09-10T02:40:43.288Z,98.39
2022-09-10T02:43:13.342Z,99.29
2022-09-10T02:45:46.294Z,98.98
2022-09-10T02:48:17.482Z,99.04
2022-09-10T02:50:48.476Z,98.43
2022-09-10T02:53:18.139Z,98.32
2022-09-10T02:55:48.338Z,98.37
2022-09-10T02:58:19.153Z,98.26
2022-09-10T03:00:51.739Z,97.75
2022-09-10T03:03:21.423Z,98.55
2022-09-10T03:05:51.046Z,98.42
2022-09-10T03:08:20.649Z,98.48
2022-09-10T03:10:51.051Z,98.73
2022-09-10T03:13:20.683Z,98.76
2022-09-10T03:15:52.925Z,98.69
2022-09-10T03:18:23.222Z,98.26
2022-09-10T03:20:53.426Z,98.29
2022-09-10T03:23:23.606Z,98.02
2022-09-10T03:25:53.206Z,97.48
2022-09-10T03:28:28.408Z,96.97
2022-09-10T03:31:01.251Z,96.39
2022-09-10T03:33:34.044Z,96.29
2022-09-10T03:36:03.818Z,96.19
2022-09-10T03:38:34.796Z,96.39
2022-09-10T03:41:05.413Z,96.00
2022-09-10T03:43:35.320Z,95.94
2022-09-10T03:46:12.112Z,95.94
2022-09-10T03:48:45.583Z,96.12
2022-09-10T03:51:16.131Z,95.93
2022-09-10T03:53:46.117Z,95.87
2022-09-10T03:56:19.959Z,95.42
2022-09-10T03:58:50.339Z,95.87
2022-09-10T04:01:22.853Z,95.21
2022-09-10T04:03:52.455Z,95.54
2022-09-10T04:06:22.221Z,95.80
2022-09-10T04:08:52.823Z,95.78
2022-09-10T04:11:27.360Z,96.03
2022-09-10T04:13:58.249Z,95.79
2022-09-10T04:16:32.236Z,96.72
2022-09-10T04:19:01.853Z,96.53
2022-09-10T04:21:32.345Z,96.55
2022-09-10T04:24:02.107Z,95.94
2022-09-10T04:26:32.459Z,95.64
2022-09-10T04:29:02.186Z,95.59
2022-09-10T04:31:34.446Z,95.71
2022-09-10T04:34:12.132Z,95.93
2022-09-10T04:36:41.823Z,95.22
2022-09-10T04:39:12.096Z,95.63
2022-09-10T04:41:41.852Z,96.78
2022-09-10T04:44:11.797Z,96.52
2022-09-10T04:46:44.979Z,96.25
2022-09-10T04:49:14.579Z,95.64
2022-09-10T04:51:44.171Z,95.32
2022-09-10T04:54:15.666Z,95.04
2022-09-10T04:56:49.666Z,94.66
2022-09-10T04:59:19.320Z,94.34
2022-09-10T05:01:52.887Z,94.34
2022-09-10T05:04:22.627Z,94.46
2022-09-10T05:06:53.427Z,94.01
2022-09-10T05:09:23.512Z,94.29
2022-09-10T05:11:53.142Z,94.56
2022-09-10T05:15:16.028Z,94.55
2022-09-10T05:17:48.269Z,95.67
2022-09-10T05:20:19.086Z,95.93
2022-09-10T05:22:53.108Z,95.47
2022-09-10T05:25:22.732Z,95.77
2022-09-10T05:27:52.853Z,95.69
2022-09-10T05:30:24.934Z,96.16
2022-09-10T05:32:58.056Z,95.50
2022-09-10T05:35:29.066Z,96.12
2022-09-10T05:37:59.118Z,96.16
2022-09-10T05:40:29.239Z,95.56
2022-09-10T05:43:00.276Z,94.74
2022-09-10T05:45:30.150Z,94.84
2022-09-10T05:48:03.933Z,94.28
2022-09-10T05:50:34.223Z,94.13
2022-09-10T05:53:03.792Z,94.19
2022-09-10T05:55:33.664Z,94.57
2022-09-10T05:58:04.397Z,94.84
2022-09-10T06:00:37.540Z,95.00
2022-09-10T06:03:10.484Z,95.11
2022-09-10T06:05:51.270Z,95.09
2022-09-10T06:08:25.449Z,95.77
2022-09-10T06:10:58.644Z,95.90
2022-09-10T06:13:30.744Z,96.11
2022-09-10T06:16:01.231Z,96.97
2022-09-10T06:18:34.514Z,97.07
2022-09-10T06:21:07.337Z,96.65
2022-09-10T06:23:37.246Z,96.61
2022-09-10T06:26:09.025Z,96.21
2022-09-10T06:28:41.701Z,96.13
2022-09-10T06:31:17.052Z,96.35
2022-09-10T06:33:51.500Z,95.98
2022-09-10T06:36:24.968Z,95.71
2022-09-10T06:38:58.172Z,95.81
2022-09-10T06:41:31.026Z,95.31
2022-09-10T06:44:09.000Z,94.87
2022-09-10T06:47:39.071Z,94.50
2022-09-10T06:49:36.437Z,94.91
2022-09-10T06:52:08.472Z,94.29
2022-09-10T06:54:38.233Z,94.12
2022-09-10T06:57:29.373Z,94.03
2022-09-10T06:59:59.064Z,93.50
2022-09-10T07:02:30.985Z,93.09
2022-09-10T07:05:04.475Z,92.62
2022-09-10T07:07:34.036Z,92.37
2022-09-10T07:10:07.494Z,92.78
2022-09-10T07:12:38.384Z,92.58
2022-09-10T07:15:12.057Z,92.42
2022-09-10T07:17:41.882Z,92.40
2022-09-10T07:20:16.681Z,92.01
2022-09-10T07:22:49.990Z,91.74
2022-09-10T07:25:23.681Z,89.52
2022-09-10T07:28:19.698Z,88.71
2022-09-10T07:30:50.432Z,88.93
2022-09-10T07:33:20.085Z,89.11
2022-09-10T07:35:52.454Z,88.85
2022-09-10T07:38:22.762Z,87.92
2022-09-10T07:40:52.800Z,87.58
2022-09-10T07:43:22.787Z,88.79
2022-09-10T07:45:54.688Z,88.16
2022-09-10T07:48:25.360Z,88.55
2022-09-10T07:51:03.897Z,87.81
2022-09-10T07:53:34.411Z,87.61
2022-09-10T07:56:08.484Z,86.27
2022-09-10T07:58:41.185Z,85.96
2022-09-10T08:01:14.253Z,85.91
2022-09-10T08:03:45.902Z,86.02
2022-09-10T08:06:21.126Z,85.39
2022-09-10T08:08:52.413Z,85.73
2022-09-10T08:11:24.191Z,85.74
2022-09-10T08:13:57.004Z,84.25
2022-09-10T08:16:30.481Z,83.82
2022-09-10T08:19:08.453Z,84.48
2022-09-10T08:21:42.087Z,83.75
2022-09-10T08:24:14.021Z,81.91
2022-09-10T08:26:46.226Z,80.81
2022-09-10T08:29:16.203Z,80.21
2022-09-10T08:31:47.476Z,80.74
2022-09-10T08:34:29.786Z,80.69
2022-09-10T08:37:10.986Z,82.02
2022-09-10T08:39:42.998Z,80.67
2022-09-10T08:42:22.517Z,80.85
2022-09-10T08:44:57.662Z,80.37
2022-09-10T08:47:40.878Z,79.42
2022-09-10T08:50:25.478Z,79.46
2022-09-10T08:53:06.303Z,77.42
2022-09-10T08:55:42.254Z,76.91
2022-09-10T08:58:19.111Z,77.28
2022-09-10T09:00:58.553Z,77.38
2022-09-10T09:03:37.457Z,74.15
2022-09-10T09:06:13.007Z,75.59
2022-09-10T09:08:51.866Z,76.18
2022-09-10T09:11:36.298Z,74.24
2022-09-10T09:14:25.075Z,75.17
2022-09-10T09:17:08.788Z,75.00
2022-09-10T09:19:47.826Z,75.37
2022-09-10T09:22:21.176Z,75.91
2022-09-10T09:25:00.750Z,75.75
2022-09-10T09:27:36.380Z,75.65
2022-09-10T09:30:09.005Z,75.42
2022-09-10T09:32:46.080Z,76.16
2022-09-10T09:35:30.209Z,74.60
2022-09-10T09:38:22.297Z,72.92
2022-09-10T09:40:58.876Z,71.86
2022-09-10T09:43:40.326Z,70.98
2022-09-10T09:46:16.752Z,72.97
2022-09-10T09:48:53.571Z,74.00
2022-09-10T09:51:27.018Z,74.29
2022-09-10T09:54:25.714Z,73.64
2022-09-10T09:56:54.831Z,73.41
2022-09-10T09:59:30.018Z,74.78
2022-09-10T10:02:07.121Z,74.41
2022-09-10T10:04:41.513Z,73.31
2022-09-10T10:07:14.204Z,71.98
2022-09-10T10:09:46.717Z,73.30
2022-09-10T10:12:25.073Z,74.58
2022-09-10T10:14:54.753Z,76.42
2022-09-10T10:17:37.371Z,77.85
2022-09-10T10:20:13.725Z,78.10
2022-09-10T10:22:44.813Z,78.45
2022-09-10T10:25:40.424Z,78.35
2022-09-10T10:28:25.392Z,77.84
2022-09-10T10:30:56.345Z,78.10
2022-09-10T10:33:30.818Z,78.69
2022-09-10T10:36:12.378Z,78.22
2022-09-10T10:38:44.240Z,77.79
2022-09-10T10:41:43.544Z,77.15
2022-09-10T10:44:35.221Z,77.76
2022-09-10T10:47:20.207Z,78.73
2022-09-10T10:50:03.400Z,79.23
2022-09-10T10:52:39.480Z,79.22
2022-09-10T10:55:20.042Z,77.85
2022-09-10T10:58:06.827Z,76.85
2022-09-10T11:00:50.031Z,76.03
2022-09-10T11:03:26.940Z,75.23
2022-09-10T11:06:01.376Z,75.92
2022-09-10T11:08:37.689Z,73.03
2022-09-10T11:11:14.709Z,73.29
2022-09-10T11:13:51.311Z,72.85
2022-09-10T11:16:29.631Z,71.60
2022-09-10T11:19:04.538Z,72.11
2022-09-10T11:21:40.314Z,72.89
2022-09-10T11:24:17.372Z,72.10
2022-09-10T11:26:51.104Z,73.41
2022-09-10T11:29:34.108Z,72.82
2022-09-10T11:32:11.285Z,72.03
2022-09-10T11:34:51.492Z,73.21
2022-09-10T11:37:27.316Z,73.52
2022-09-10T11:40:01.998Z,72.44
2022-09-10T11:42:39.745Z,72.15
2022-09-10T11:45:22.078Z,72.54
2022-09-10T11:48:07.587Z,71.77
2022-09-10T11:50:42.959Z,72.67
2022-09-10T11:53:17.532Z,72.39
2022-09-10T11:56:12.175Z,72.57
2022-09-10T11:58:52.869Z,72.40
2022-09-10T12:01:38.987Z,71.71
2022-09-10T12:04:42.714Z,71.15
2022-09-10T12:07:22.031Z,70.36
2022-09-10T12:10:05.009Z,70.37
2022-09-10T12:12:43.320Z,70.15
2022-09-10T12:15:21.276Z,69.98
2022-09-10T12:17:57.070Z,71.12
2022-09-10T12:20:33.412Z,71.60
2022-09-10T12:23:03.330Z,72.42
2022-09-10T12:25:35.049Z,72.99
2022-09-10T12:28:08.270Z,72.95
2022-09-10T12:31:09.109Z,71.75
2022-09-10T12:34:12.589Z,73.09
2022-09-10T12:37:20.061Z,73.55
2022-09-10T12:40:41.477Z,73.79
2022-09-10T12:43:59.876Z,74.03
2022-09-10T12:46:32.034Z,74.97
2022-09-10T12:49:16.907Z,74.27
2022-09-10T12:52:06.609Z,73.40
2022-09-10T12:54:52.838Z,71.26
2022-09-10T12:57:35.235Z,69.44
2022-09-10T13:00:19.983Z,67.76
2022-09-10T13:02:59.091Z,67.76
2022-09-10T13:05:37.991Z,67.36
2022-09-10T13:08:20.492Z,66.58
2022-09-10T13:10:58.398Z,66.87
2022-09-10T13:13:39.026Z,64.68
2022-09-10T13:16:20.437Z,65.60
2022-09-10T13:18:55.066Z,66.68
2022-09-10T13:21:54.893Z,66.90
2022-09-10T13:24:39.775Z,66.66
2022-09-10T13:27:23.313Z,65.14
2022-09-10T13:30:12.245Z,65.20
2022-09-10T13:32:46.111Z,65.25
2022-09-10T13:35:35.078Z,65.50
2022-09-10T13:38:22.925Z,63.32
2022-09-10T13:41:06.458Z,64.43
2022-09-10T13:43:59.452Z,64.54
2022-09-10T13:46:40.282Z,65.55
2022-09-10T13:49:16.748Z,65.62
2022-09-10T13:51:53.178Z,65.55
2022-09-10T13:54:35.037Z,64.25
2022-09-10T13:57:11.434Z,64.67
2022-09-10T13:59:44.165Z,64.51
2022-09-10T14:02:19.653Z,65.85
2022-09-10T14:04:51.791Z,66.31
2022-09-10T14:07:25.454Z,66.59
2022-09-10T14:09:59.625Z,66.89
2022-09-10T14:12:31.422Z,67.12
2022-09-10T14:15:05.135Z,67.40
2022-09-10T14:17:45.144Z,66.90
2022-09-10T14:20:24.999Z,65.81
2022-09-10T14:22:59.821Z,66.52
2022-09-10T14:25:35.470Z,66.60
2022-09-10T14:28:21.838Z,68.29
2022-09-10T14:30:53.235Z,69.09
2022-09-10T14:33:35.218Z,69.98
2022-09-10T14:36:17.598Z,69.82
2022-09-10T14:38:55.721Z,71.52
2022-09-10T14:41:27.474Z,74.13
2022-09-10T14:44:20.451Z,75.55
2022-09-10T14:46:52.726Z,76.58
2022-09-10T14:49:29.102Z,76.76
2022-09-10T14:51:59.907Z,77.92
2022-09-10T14:54:29.964Z,76.45
2022-09-10T14:57:01.236Z,76.62
2022-09-10T14:59:34.080Z,76.59
2022-09-10T15:02:05.799Z,76.64
2022-09-10T15:04:38.906Z,74.40
2022-09-10T15:07:08.574Z,75.00
2022-09-10T15:09:38.172Z,74.79
2022-09-10T15:12:12.059Z,74.53
2022-09-10T15:14:42.103Z,76.16
2022-09-10T15:17:15.808Z,76.12
2022-09-10T15:19:49.969Z,76.29
2022-09-10T15:22:24.835Z,75.66
2022-09-10T15:25:11.437Z,75.42
2022-09-10T15:27:41.873Z,76.85
2022-09-10T15:30:12.520Z,77.18
2022-09-10T15:32:42.169Z,77.36
2022-09-10T15:35:14.484Z,77.68
2022-09-10T15:37:44.257Z,78.01
2022-09-10T15:40:14.633Z,78.03
2022-09-10T15:42:44.349Z,77.95
2022-09-10T15:45:15.088Z,77.95
2022-09-10T15:47:44.735Z,76.68
2022-09-10T15:50:17.139Z,76.17
2022-09-10T15:52:47.454Z,76.25
2022-09-10T15:55:17.493Z,76.63
2022-09-10T15:57:47.279Z,76.67
2022-09-10T16:00:17.819Z,76.34
2022-09-10T16:02:47.988Z,76.14
2022-09-10T16:05:21.141Z,76.46
2022-09-10T16:07:50.781Z,76.53
2022-09-10T16:10:20.542Z,76.01
2022-09-10T16:12:50.100Z,76.63
2022-09-10T16:15:19.889Z,76.14
2022-09-10T16:17:49.538Z,76.93
2022-09-10T16:20:22.217Z,76.73
2022-09-10T16:22:53.798Z,76.03
2022-09-10T16:25:23.461Z,74.94
2022-09-10T16:27:53.077Z,74.17
2022-09-10T16:30:22.779Z,74.10
2022-09-10T16:32:52.869Z,74.68
2022-09-10T16:35:26.501Z,74.38
2022-09-10T16:37:56.364Z,74.02
2022-09-10T16:40:25.928Z,74.02
2022-09-10T16:42:55.759Z,75.08
2022-09-10T16:45:25.573Z,75.34
2022-09-10T16:48:03.483Z,75.88
2022-09-10T16:50:36.394Z,75.97
2022-09-10T16:53:10.153Z,75.69
2022-09-10T16:55:41.510Z,75.75
2022-09-10T16:58:11.122Z,76.04
2022-09-10T17:00:42.784Z,75.23
2022-09-10T17:03:12.373Z,75.35
2022-09-10T17:05:44.577Z,75.41
2022-09-10T17:08:14.137Z,75.81
2022-09-10T17:10:44.682Z,76.34
2022-09-10T17:13:14.427Z,75.81
2022-09-10T17:15:44.683Z,75.45
2022-09-10T17:18:15.037Z,75.68
2022-09-10T17:20:48.217Z,75.60
2022-09-10T17:23:18.749Z,75.17
2022-09-10T17:25:48.368Z,74.98
2022-09-10T17:28:18.030Z,74.72
2022-09-10T17:30:47.913Z,75.11
2022-09-10T17:33:18.169Z,75.83
2022-09-10T17:35:58.064Z,75.17
2022-09-10T17:38:27.690Z,75.44
2022-09-10T17:40:58.175Z,75.30
2022-09-10T17:43:27.898Z,75.98
2022-09-10T17:45:58.312Z,76.32
2022-09-10T17:48:28.359Z,76.46
2022-09-10T17:51:00.779Z,77.39
2022-09-10T17:53:30.630Z,77.73
2022-09-10T17:56:04.704Z,77.22
2022-09-10T17:58:35.220Z,78.27
2022-09-10T18:01:08.284Z,78.58
2022-09-10T18:03:38.540Z,78.95
2022-09-10T18:06:12.660Z,78.77
2022-09-10T18:08:42.691Z,78.61
2022-09-10T18:11:14.183Z,78.28
2022-09-10T18:13:44.429Z,78.24
2022-09-10T18:16:16.625Z,79.13
2022-09-10T18:18:47.563Z,78.77
2022-09-10T18:21:21.196Z,79.03
2022-09-10T18:23:54.403Z,78.73
2022-09-10T18:26:26.746Z,78.93
2022-09-10T18:28:59.488Z,79.07
2022-09-10T18:31:30.952Z,78.95
2022-09-10T18:34:01.531Z,79.74
2022-09-10T18:36:34.721Z,79.60
2022-09-10T18:39:05.185Z,79.97
2022-09-10T18:41:36.950Z,80.12
2022-09-10T18:44:08.453Z,80.04
2022-09-10T18:46:38.767Z,80.76
2022-09-10T18:49:08.478Z,81.44
2022-09-10T18:51:42.225Z,81.33
2022-09-10T18:54:13.383Z,81.41
2022-09-10T18:56:45.068Z,81.59
2022-09-10T18:59:17.314Z,81.88
2022-09-10T19:01:47.156Z,81.85
2022-09-10T19:04:20.095Z,82.38
2022-09-10T19:06:52.790Z,82.53
2022-09-10T19:09:24.281Z,82.72
2022-09-10T19:11:56.620Z,82.41
2022-09-10T19:14:29.416Z,82.74
2022-09-10T19:17:00.410Z,82.70
2022-09-10T19:19:31.832Z,82.60
2022-09-10T19:22:07.242Z,83.36
2022-09-10T19:24:54.566Z,83.84
2022-09-10T19:27:24.958Z,83.93
2022-09-10T19:29:55.865Z,84.29
2022-09-10T19:32:25.453Z,83.79
2022-09-10T19:34:55.466Z,84.15
2022-09-10T19:37:28.560Z,83.70
2022-09-10T19:39:59.117Z,83.95
2022-09-10T19:42:28.897Z,84.51
2022-09-10T19:44:58.467Z,83.86
2022-09-10T19:47:28.093Z,83.87
2022-09-10T19:49:59.067Z,83.88
2022-09-10T19:52:32.709Z,83.41
2022-09-10T19:55:02.984Z,84.08
2022-09-10T19:57:33.846Z,84.03
2022-09-10T20:00:03.521Z,84.50
2022-09-10T20:02:41.298Z,83.56
2022-09-10T20:05:11.745Z,83.78
2022-09-10T20:07:44.008Z,84.00
2022-09-10T20:10:13.646Z,84.20
2022-09-10T20:12:43.253Z,84.32
2022-09-10T20:15:13.381Z,84.59
2022-09-10T20:17:42.962Z,85.63
2022-09-10T20:20:13.493Z,85.48
2022-09-10T20:22:45.661Z,85.50
2022-09-10T20:25:15.769Z,85.84
2022-09-10T20:27:45.378Z,86.10
2022-09-10T20:30:15.401Z,85.86
2022-09-10T20:32:45.750Z,85.75
2022-09-10T20:35:15.364Z,85.32
2022-09-10T20:37:51.650Z,85.20
2022-09-10T20:40:21.369Z,85.63
2022-09-10T20:42:54.844Z,85.61
2022-09-10T20:45:24.556Z,85.72
2022-09-10T20:47:54.120Z,85.23
2022-09-10T20:50:23.987Z,85.43
2022-09-10T20:52:56.109Z,84.82
2022-09-10T20:55:25.680Z,85.15
2022-09-10T20:57:55.285Z,85.72
2022-09-10T21:00:25.359Z,85.83
2022-09-10T21:02:55.192Z,86.48
2022-09-10T21:05:25.883Z,86.64
2022-09-10T21:07:59.127Z,86.96
2022-09-10T21:10:28.689Z,87.82
2022-09-10T21:12:58.805Z,87.86
2022-09-10T21:15:30.082Z,88.14
2022-09-10T21:18:00.160Z,88.25
2022-09-10T21:20:29.756Z,88.06
2022-09-10T21:23:02.220Z,88.39
2022-09-10T21:25:31.914Z,88.39
2022-09-10T21:28:01.523Z,88.66
2022-09-10T21:30:31.234Z,88.50
2022-09-10T21:33:00.817Z,88.58
2022-09-10T21:35:31.152Z,88.68
2022-09-10T21:38:03.258Z,89.00
2022-09-10T21:40:32.798Z,89.01
2022-09-10T21:43:04.182Z,88.94
2022-09-10T21:45:33.729Z,89.24
2022-09-10T21:48:03.254Z,88.30
2022-09-10T21:50:32.818Z,88.95
2022-09-10T21:53:04.904Z,88.87
2022-09-10T21:55:34.438Z,88.71
2022-09-10T21:58:03.965Z,88.90
2022-09-10T22:00:33.584Z,88.90
2022-09-10T22:03:04.286Z,88.88
2022-09-10T22:05:33.854Z,89.41
2022-09-10T22:08:07.066Z,89.66
2022-09-10T22:10:37.027Z,89.62
2022-09-10T22:13:06.545Z,88.88
2022-09-10T22:15:41.298Z,88.65
2022-09-10T22:18:11.965Z,88.53
2022-09-10T22:20:41.492Z,89.19
2022-09-10T22:23:14.034Z,88.37
2022-09-10T22:25:43.624Z,89.44
2022-09-10T22:28:13.128Z,89.54
2022-09-10T22:30:42.643Z,88.89
2022-09-10T22:33:12.176Z,87.91
2022-09-10T22:35:41.717Z,87.89
2022-09-10T22:38:19.085Z,88.08
2022-09-10T22:40:49.208Z,88.25
2022-09-10T22:43:19.489Z,88.13
2022-09-10T22:45:49.130Z,88.14
2022-09-10T22:48:18.658Z,88.26
2022-09-10T22:50:48.300Z,88.45
2022-09-10T22:53:21.534Z,88.47
2022-09-10T22:55:51.054Z,88.59
2022-09-10T22:58:20.582Z,88.92
2022-09-10T23:00:50.124Z,88.86
2022-09-10T23:03:20.545Z,88.77
2022-09-10T23:05:50.498Z,89.24
2022-09-10T23:08:22.610Z,88.97
2022-09-10T23:10:52.170Z,89.41
2022-09-10T23:13:21.838Z,89.53
2022-09-10T23:15:51.977Z,90.03
2022-09-10T23:18:21.513Z,90.30
2022-09-10T23:20:51.029Z,90.52
2022-09-10T23:23:23.129Z,90.71
2022-09-10T23:25:52.702Z,91.04
2022-09-10T23:28:22.218Z,90.82
2022-09-10T23:30:52.150Z,90.44
2022-09-10T23:33:21.820Z,90.48
2022-09-10T23:35:52.498Z,90.28
2022-09-10T23:38:24.784Z,90.13
2022-09-10T23:40:54.432Z,90.37
2022-09-10T23:43:24.421Z,90.29
2022-09-10T23:45:54.106Z,90.36
2022-09-10T23:48:25.048Z,90.46
2022-09-10T23:50:55.466Z,91.18
2022-09-10T23:53:28.683Z,90.70
2022-09-10T23:55:58.839Z,91.28
2022-09-10T23:58:28.396Z,91.52
